Latest Weather Observations for Port Pirie Airport AWS***

IDS60801

Issued at 11:35 pm CST Monday 22 September 2014 (issued every 30 minutes, with the page automatically refreshed every 10 minutes)

About weather observations | Map of weather stations | Latest weather observations for SA | Other Formats
Station Details ID: 250006 Name: PORT PIRIE AERODROME AWS Lat: -33.23 Lon: 138.00 Height: 10.0 m
Data from the previous 72 hours. | See also: Recent months for locations in South Australia
Date/Time
CST
Temp
°C
App
Temp
°C
Dew
Point
Rel
Hum
%
Delta-T
°C
Wind Press
QNH
hPa
Press
MSL
hPa
Rain
since 9 am
mm
Dir
 
Spd
km/h
Gust
km/h
Spd
kts
Gust
kts
22/11:30pm 12.9 9.3 -1.8 36 5.8 ENE 7 9 4 5 - - 0.0
22/11:00pm 11.3 7.9 -0.5 44 4.7 E 7 13 4 7 - - 0.0
22/10:30pm 12.4 9.7 0.2 43 5.0 ESE 4 6 2 3 - - 0.0
22/10:00pm 13.3 10.8 -0.7 38 5.7 NE 2 4 1 2 - - 0.0
22/09:30pm 16.4 13.1 -1.2 30 7.3 NNW 6 7 3 4 - - 0.0
22/09:00pm 15.2 12.4 -0.5 34 6.6 NE 4 4 2 2 - - 0.0
22/08:30pm 15.1 11.8 -1.0 33 6.7 E 6 7 3 4 - - 0.0
22/08:00pm 16.9 14.0 -1.2 29 7.6 E 4 6 2 3 - - 0.0
22/07:30pm 19.3 16.1 -0.7 26 8.7 NE 6 7 3 4 - - 0.0
22/07:00pm 18.9 15.4 -1.5 25 8.7 ENE 7 9 4 5 - - 0.0
22/06:30pm 21.3 17.3 -1.9 21 10.0 NE 9 13 5 7 - - 0.0
22/06:00pm 24.8 19.6 -2.7 16 12.0 NE 15 22 8 12 - - 0.0
22/05:30pm 26.3 20.7 -3.3 14 12.9 NE 17 26 9 14 - - 0.0
22/05:00pm 26.7 21.8 -3.0 14 13.1 NE 13 22 7 12 - - 0.0
22/04:30pm 27.5 23.0 -3.3 13 13.6 N 11 19 6 10 - - 0.0
22/04:00pm 27.5 22.1 -4.4 12 13.8 NNE 15 24 8 13 - - 0.0
22/03:30pm 27.5 23.4 -3.3 13 13.6 N 9 19 5 10 - - 0.0
22/03:00pm 27.3 22.9 -2.5 14 13.3 N 11 24 6 13 - - 0.0
22/02:30pm 27.4 23.4 -2.4 14 13.4 NNW 9 20 5 11 - - 0.0
22/02:00pm 26.6 22.2 -2.1 15 12.9 NNW 11 22 6 12 - - 0.0
22/01:30pm 27.1 22.5 -0.9 16 12.9 NNW 13 22 7 12 - - 0.0
22/01:00pm 26.8 21.7 -2.0 15 13.0 N 15 24 8 13 - - 0.0
22/12:30pm 25.8 21.1 -1.9 16 12.4 N 13 24 7 13 - - 0.0
22/12:00pm 26.6 21.1 -2.1 15 12.9 N 17 24 9 13 - - 0.0
22/11:30am 24.8 19.7 -1.9 17 11.8 N 15 26 8 14 - - 0.0
22/11:00am 24.4 19.4 -1.4 18 11.5 N 15 26 8 14 - - 0.0
22/10:30am 24.7 18.1 -0.4 19 11.4 NNE 24 35 13 19 - - 0.0
22/10:00am 23.5 15.9 -2.2 18 11.2 NNE 28 37 15 20 - - 0.0
22/09:30am 22.8 16.7 -2.0 19 10.8 N 20 32 11 17 - - 0.0
22/09:00am 21.8 16.5 -0.8 22 10.0 NNE 17 26 9 14 - - 0.0
22/08:30am 20.6 16.4 -1.2 23 9.4 N 11 19 6 10 - - 0.0
22/08:00am 20.0 15.0 -1.2 24 9.1 NNE 15 22 8 12 - - 0.0
22/07:30am 16.3 14.1 1.2 36 6.6 SSE 2 6 1 3 - - 0.0
22/07:21am 13.2 11.4 1.2 44 5.1 CALM 0 4 0 2 - - 0.0
22/07:00am 8.0 5.8 1.0 61 2.8 ENE 2 4 1 2 - - 0.0
22/06:30am 4.7 1.8 -0.9 67 2.1 SSE 4 6 2 3 - - 0.0
22/06:00am 4.1 1.1 -1.5 67 2.0 S 4 6 2 3 - - 0.0
22/05:30am 4.2 0.9 -1.6 66 2.1 S 6 7 3 4 - - 0.0
22/05:00am 5.5 2.2 -1.0 63 2.4 SSW 6 7 3 4 - - 0.0
22/04:30am 4.9 1.6 -1.1 65 2.2 S 6 7 3 4 - - 0.0
22/04:00am 4.9 1.6 -1.1 65 2.2 SSW 6 7 3 4 - - 0.0
22/03:30am 4.5 1.6 -1.3 66 2.1 SSE 4 7 2 4 - - 0.0
22/03:00am 5.6 2.6 -1.5 60 2.6 S 4 7 2 4 - - 0.0
22/02:30am 7.7 4.2 -1.3 53 3.4 SSW 7 7 4 4 - - 0.0
22/02:00am 7.3 4.0 -1.4 54 3.3 SSW 6 7 3 4 - - 0.0
22/01:30am 8.4 5.1 -1.4 50 3.7 S 6 7 3 4 - - 0.0
22/01:00am 9.9 6.3 -1.8 44 4.5 SW 7 9 4 5 - - 0.0
22/12:30am 10.7 8.0 -2.3 40 5.0 SW 2 4 1 2 - - 0.0
22/12:00am 11.8 8.2 -2.4 37 5.5 SE 7 9 4 5 - - 0.0
 
Date/Time
CST
Temp
°C
App
Temp
°C
Dew
Point
Rel
Hum
%
Delta-T
°C
Wind Press
QNH
hPa
Press
MSL
hPa
Rain
since 9 am
mm
Dir
 
Spd
km/h
Gust
km/h
Spd
kts
Gust
kts
21/11:30pm 12.7 8.2 -3.1 33 6.1 E 11 13 6 7 - - 0.0
21/11:00pm 16.3 11.5 -2.2 28 7.5 ENE 13 19 7 10 - - 0.0
21/10:55pm 15.9 11.6 -1.6 30 7.2 ENE 11 19 6 10 - - 0.0
21/10:30pm 10.8 8.4 -0.3 46 4.5 ESE 2 4 1 2 - - 0.0
21/10:00pm 9.6 6.8 -0.6 49 4.0 S 4 7 2 4 - - 0.0
21/09:30pm 9.1 6.0 0.3 54 3.5 SE 6 7 3 4 - - 0.0
21/09:00pm 10.1 6.5 0.7 52 3.8 SSE 9 13 5 7 - - 0.0
21/08:30pm 9.7 6.5 0.9 54 3.6 S 7 9 4 5 - - 0.0
21/08:00pm 11.4 8.3 1.6 51 4.1 SSE 7 11 4 6 - - 0.0
21/07:30pm 12.1 8.4 2.6 52 4.1 SSE 11 11 6 6 - - 0.0
21/07:00pm 14.4 11.9 4.7 52 4.5 S 7 9 4 5 - - 0.0
21/06:30pm 17.3 14.9 5.3 45 5.8 SSW 7 11 4 6 - - 0.0
21/06:00pm 19.4 16.4 4.3 37 7.2 WSW 9 15 5 8 - - 0.0
21/05:30pm 21.3 16.1 2.6 29 8.8 SW 19 24 10 13 - - 0.0
21/05:00pm 24.8 21.0 -3.6 15 12.2 ESE 7 15 4 8 - - 0.0
21/04:30pm 25.6 21.1 -2.9 15 12.5 E 11 20 6 11 - - 0.0
21/04:00pm 25.6 21.1 -2.9 15 12.5 E 11 20 6 11 - - 0.0
21/03:30pm 25.9 22.5 -1.8 16 12.4 SE 6 11 3 6 - - 0.0
21/03:00pm 26.1 21.4 -1.7 16 12.5 E 13 22 7 12 - - 0.0
21/02:30pm 25.4 22.0 -0.6 18 11.9 ESE 7 37 4 20 - - 0.0
21/02:00pm 25.7 21.7 0.4 19 11.8 ESE 11 20 6 11 - - 0.0
21/01:30pm 25.1 21.5 0.6 20 11.4 SSW 9 32 5 17 - - 0.0
21/01:00pm 24.5 21.3 0.8 21 11.0 S 7 19 4 10 - - 0.0
21/12:30pm 24.4 19.8 -0.7 19 11.3 SE 13 30 7 16 - - 0.0
21/12:00pm 23.8 20.7 1.4 23 10.5 S 7 22 4 12 - - 0.0
21/11:30am 24.1 21.2 1.7 23 10.6 NNW 6 11 3 6 - - 0.0
21/11:00am 22.9 20.4 1.3 24 10.0 N 4 9 2 5 - - 0.0
21/10:30am 21.9 18.6 0.4 24 9.7 S 7 13 4 7 - - 0.0
21/10:00am 21.0 18.7 0.2 25 9.3 ESE 2 6 1 3 - - 0.0
21/09:30am 20.5 18.3 0.9 27 8.8 SSW 2 6 1 3 - - 0.0
21/09:00am 19.6 17.4 1.1 29 8.3 SW 2 6 1 3 - - 0.0
21/08:30am 18.6 16.5 2.0 33 7.5 NE 2 6 1 3 - - 0.0
21/08:00am 17.1 14.8 2.7 38 6.6 NNE 4 6 2 3 - - 0.0
21/07:30am 13.5 11.1 2.4 47 4.9 SSE 4 7 2 4 - - 0.0
21/07:00am 8.9 5.9 0.9 57 3.2 S 6 9 3 5 - - 0.0
21/06:30am 6.7 3.5 -0.5 60 2.8 SSW 6 7 3 4 - - 0.0
21/06:00am 7.7 4.5 -0.5 56 3.2 SW 6 9 3 5 - - 0.0
21/05:30am 8.2 4.8 -0.5 54 3.4 SW 7 11 4 6 - - 0.0
21/05:00am 9.1 5.8 -1.0 49 3.9 WSW 6 9 3 5 - - 0.0
21/04:30am 11.1 7.6 -1.3 42 4.9 WSW 7 11 4 6 - - 0.0
21/04:00am 13.8 10.5 -1.4 35 6.1 NE 6 9 3 5 - - 0.0
21/03:30am 15.0 11.7 -1.1 33 6.6 ESE 6 13 3 7 - - 0.0
21/03:00am 14.9 11.6 -1.2 33 6.6 ENE 6 9 3 5 - - 0.0
21/02:30am 15.9 11.3 -1.2 31 7.1 E 13 22 7 12 - - 0.0
21/02:00am 16.6 11.2 -1.5 29 7.5 E 17 22 9 12 - - 0.0
21/01:30am 16.9 11.5 -1.7 28 7.7 E 17 26 9 14 - - 0.0
21/01:00am 17.2 11.4 -1.4 28 7.8 E 19 28 10 15 - - 0.0
21/12:30am 17.1 11.3 -1.5 28 7.8 E 19 30 10 16 - - 0.0
21/12:00am 16.8 11.0 -1.8 28 7.7 E 19 32 10 17 - - 0.0
 
Date/Time
CST
Temp
°C
App
Temp
°C
Dew
Point
Rel
Hum
%
Delta-T
°C
Wind Press
QNH
hPa
Press
MSL
hPa
Rain
since 9 am
mm
Dir
 
Spd
km/h
Gust
km/h
Spd
kts
Gust
kts
20/11:30pm 17.0 11.6 -1.6 28 7.7 E 17 28 9 15 - - 0.0
20/11:00pm 16.7 11.6 -1.9 28 7.7 E 15 28 8 15 - - 0.0
20/10:30pm 16.5 12.2 -1.6 29 7.5 E 11 22 6 12 - - 0.0
20/10:00pm 15.7 11.1 -1.4 31 7.0 E 13 19 7 10 - - 0.0
20/09:30pm 16.4 11.6 0.1 33 7.0 E 15 22 8 12 - - 0.0
20/09:00pm 12.3 9.3 1.9 49 4.5 ESE 7 11 4 6 - - 0.0
20/08:30pm 12.7 9.0 2.3 49 4.5 SSE 11 19 6 10 - - 0.0
20/08:00pm 12.6 9.3 2.2 49 4.5 SE 9 11 5 6 - - 0.0
20/07:30pm 13.5 10.2 2.4 47 4.9 ESE 9 11 5 6 - - 0.0
20/07:00pm 15.8 12.5 2.2 40 6.1 ESE 9 13 5 7 - - 0.0
20/06:30pm 17.1 13.7 1.9 36 6.8 SSE 9 13 5 7 - - 0.0
20/06:00pm 19.9 16.5 1.8 30 8.3 S 9 11 5 6 - - 0.0
20/05:30pm 22.7 18.5 1.7 25 9.8 S 13 19 7 10 - - 0.0
20/05:00pm 23.5 17.9 1.2 23 10.4 S 20 28 11 15 - - 0.0
20/04:30pm 24.6 20.2 0.2 20 11.2 SE 13 22 7 12 - - 0.0
20/04:00pm 24.4 21.4 0.7 21 11.0 S 6 15 3 8 - - 0.0
20/03:30pm 25.1 22.3 1.9 22 11.1 SSE 6 11 3 6 - - 0.0
20/03:00pm 24.4 21.4 0.7 21 11.0 NW 6 15 3 8 - - 0.0
20/02:30pm 24.6 20.3 0.8 21 11.1 NE 13 22 7 12 - - 0.0
20/02:00pm 24.3 20.7 0.6 21 11.0 N 9 17 5 9 - - 0.0
20/01:30pm 24.3 20.8 1.2 22 10.8 NNW 9 19 5 10 - - 0.0
20/01:00pm 24.2 20.7 1.2 22 10.8 NW 9 19 5 10 - - 0.0
20/12:30pm 23.0 19.4 0.8 23 10.2 N 9 19 5 10 - - 0.0
20/12:00pm 22.7 19.2 1.1 24 10.0 N 9 22 5 12 - - 0.0
20/11:30am 22.5 18.3 1.5 25 9.7 N 13 20 7 11 - - 0.0
20/11:00am 22.4 18.5 0.9 24 9.9 N 11 20 6 11 - - 0.0
20/10:30am 22.4 17.7 0.9 24 9.9 NNE 15 24 8 13 - - 0.0
20/10:00am 21.8 16.3 0.4 24 9.7 NNE 19 28 10 15 - - 0.0
20/09:30am 20.7 14.6 0.5 26 9.1 NNE 22 32 12 17 - - 0.0
20/09:00am 20.3 14.7 0.2 26 8.9 NNE 19 30 10 16 - - 0.0
20/08:30am 19.5 14.3 0.0 27 8.6 N 17 24 9 13 - - 0.0
20/08:00am 16.8 14.6 1.3 35 6.8 SW 2 4 1 2 - - 0.0
20/07:30am 13.4 11.0 2.0 46 5.0 SSW 4 6 2 3 - - 0.0
20/07:00am 10.1 7.2 1.5 55 3.6 SW 6 7 3 4 - - 0.0
20/06:30am 7.6 4.5 0.3 60 2.9 SSW 6 7 3 4 - - 0.0
20/06:00am 8.0 5.2 -0.7 54 3.4 WSW 4 6 2 3 - - 0.0
20/05:30am 8.5 6.0 -0.8 52 3.6 SSW 2 6 1 3 - - 0.0
20/05:00am 12.2 9.3 -1.3 39 5.4 ENE 4 7 2 4 - - 0.0
20/04:30am 12.5 8.6 -1.8 37 5.7 NE 9 11 5 6 - - 0.0
20/04:00am 13.5 9.2 -2.0 34 6.2 NE 11 19 6 10 - - 0.0
20/03:30am 14.6 9.9 -1.5 33 6.6 NE 13 19 7 10 - - 0.0
20/03:00am 15.1 10.4 -1.5 32 6.8 NE 13 17 7 9 - - 0.0
20/02:30am 15.3 10.3 -1.3 32 6.8 NE 15 20 8 11 - - 0.0
20/02:00am 14.6 10.4 -1.1 34 6.4 ENE 11 15 6 8 - - 0.0
20/01:30am 15.3 10.3 -1.3 32 6.8 ENE 15 24 8 13 - - 0.0
20/01:00am 15.7 10.7 -0.9 32 6.9 ENE 15 26 8 14 - - 0.0
20/12:30am 16.2 10.3 -0.9 31 7.2 ENE 20 32 11 17 - - 0.0
20/12:00am 16.0 10.3 -0.7 32 7.0 ENE 19 30 10 16 - - 0.0

Other Formats:

Comma delimited format used in spreadsheet applications
http://www.bom.gov.au/fwo/IDS60801/IDS60801.99001.axf

JavaScript Object Notation format (JSON) in row-major order
http://www.bom.gov.au/fwo/IDS60801/IDS60801.99001.json